sensor_id;sensor_type;location;lat;lon;timestamp;pressure;altitude;pressure_sealevel;temperature;humidity
56402;BME280;42299;35.160;26.100;2023-12-28T00:03:27;102147.00;;;15.66;100.00
56402;BME280;42299;35.160;26.100;2023-12-28T00:08:52;102146.91;;;15.61;100.00
56402;BME280;42299;35.160;26.100;2023-12-28T00:14:15;102158.84;;;15.36;100.00
56402;BME280;42299;35.160;26.100;2023-12-28T00:19:39;102148.13;;;15.32;100.00
56402;BME280;42299;35.160;26.100;2023-12-28T00:25:01;102158.69;;;15.27;100.00
56402;BME280;42299;35.160;26.100;2023-12-28T00:30:24;102161.81;;;15.06;100.00
56402;BME280;42299;35.160;26.100;2023-12-28T00:35:48;102163.44;;;14.98;100.00
56402;BME280;42299;35.160;26.100;2023-12-28T00:41:10;102165.09;;;14.93;100.00
56402;BME280;42299;35.160;26.100;2023-12-28T00:46:33;102168.00;;;15.05;100.00
56402;BME280;42299;35.160;26.100;2023-12-28T00:51:57;102170.63;;;15.04;100.00
56402;BME280;42299;35.160;26.100;2023-12-28T00:57:20;102161.63;;;14.97;100.00
56402;BME280;42299;35.160;26.100;2023-12-28T01:02:42;102168.09;;;15.08;100.00
56402;BME280;42299;35.160;26.100;2023-12-28T01:08:09;102168.59;;;14.89;100.00
56402;BME280;42299;35.160;26.100;2023-12-28T01:13:31;102167.09;;;14.61;100.00
56402;BME280;42299;35.160;26.100;2023-12-28T01:18:55;102172.31;;;14.57;100.00
56402;BME280;42299;35.160;26.100;2023-12-28T01:24:19;102174.09;;;14.58;100.00
56402;BME280;42299;35.160;26.100;2023-12-28T01:29:41;102182.78;;;14.49;100.00
56402;BME280;42299;35.160;26.100;2023-12-28T01:35:04;102174.22;;;14.62;100.00
56402;BME280;42299;35.160;26.100;2023-12-28T01:40:30;102184.03;;;14.66;100.00
56402;BME280;42299;35.160;26.100;2023-12-28T01:45:52;102192.63;;;14.55;100.00
56402;BME280;42299;35.160;26.100;2023-12-28T01:51:15;102186.25;;;14.47;100.00
56402;BME280;42299;35.160;26.100;2023-12-28T01:56:40;102186.28;;;14.48;100.00
56402;BME280;42299;35.160;26.100;2023-12-28T02:02:03;102190.13;;;14.61;100.00
56402;BME280;42299;35.160;26.100;2023-12-28T02:07:26;102185.88;;;14.69;100.00
56402;BME280;42299;35.160;26.100;2023-12-28T02:12:51;102172.53;;;15.09;100.00
56402;BME280;42299;35.160;26.100;2023-12-28T02:18:19;102166.22;;;15.51;100.00
56402;BME280;42299;35.160;26.100;2023-12-28T02:23:46;102164.81;;;15.71;100.00
56402;BME280;42299;35.160;26.100;2023-12-28T02:29:11;102161.53;;;15.86;100.00
56402;BME280;42299;35.160;26.100;2023-12-28T02:34:37;102148.03;;;15.75;100.00
56402;BME280;42299;35.160;26.100;2023-12-28T02:40:04;102149.09;;;15.35;100.00
56402;BME280;42299;35.160;26.100;2023-12-28T02:45:33;102157.44;;;15.08;100.00
56402;BME280;42299;35.160;26.100;2023-12-28T02:50:56;102147.97;;;15.24;100.00
56402;BME280;42299;35.160;26.100;2023-12-28T02:56:19;102154.53;;;15.43;100.00
56402;BME280;42299;35.160;26.100;2023-12-28T03:01:43;102157.56;;;15.61;100.00
56402;BME280;42299;35.160;26.100;2023-12-28T03:07:08;102151.22;;;15.53;100.00
56402;BME280;42299;35.160;26.100;2023-12-28T03:12:30;102155.47;;;15.45;100.00
56402;BME280;42299;35.160;26.100;2023-12-28T03:17:55;102150.25;;;15.51;100.00
56402;BME280;42299;35.160;26.100;2023-12-28T03:23:18;102154.59;;;15.46;100.00
56402;BME280;42299;35.160;26.100;2023-12-28T03:28:40;102153.66;;;15.44;100.00
56402;BME280;42299;35.160;26.100;2023-12-28T03:34:04;102161.56;;;15.39;100.00
56402;BME280;42299;35.160;26.100;2023-12-28T03:39:27;102172.81;;;15.71;100.00
56402;BME280;42299;35.160;26.100;2023-12-28T03:44:50;102178.66;;;16.00;100.00
56402;BME280;42299;35.160;26.100;2023-12-28T03:50:14;102185.09;;;16.16;100.00
56402;BME280;42299;35.160;26.100;2023-12-28T03:55:37;102185.16;;;16.19;100.00
56402;BME280;42299;35.160;26.100;2023-12-28T04:00:59;102196.91;;;16.34;100.00
56402;BME280;42299;35.160;26.100;2023-12-28T04:06:24;102205.22;;;16.53;100.00
56402;BME280;42299;35.160;26.100;2023-12-28T04:11:46;102207.38;;;16.78;100.00
56402;BME280;42299;35.160;26.100;2023-12-28T04:17:09;102211.44;;;16.53;100.00
56402;BME280;42299;35.160;26.100;2023-12-28T04:22:33;102208.19;;;16.14;100.00
56402;BME280;42299;35.160;26.100;2023-12-28T04:27:55;102224.09;;;16.11;100.00
56402;BME280;42299;35.160;26.100;2023-12-28T04:33:18;102221.41;;;16.08;100.00
56402;BME280;42299;35.160;26.100;2023-12-28T04:38:43;102226.72;;;16.09;100.00
56402;BME280;42299;35.160;26.100;2023-12-28T04:44:06;102238.53;;;16.25;100.00
56402;BME280;42299;35.160;26.100;2023-12-28T04:49:28;102242.13;;;16.28;100.00
56402;BME280;42299;35.160;26.100;2023-12-28T04:54:53;102239.69;;;16.42;100.00
56402;BME280;42299;35.160;26.100;2023-12-28T05:00:16;102240.59;;;16.43;100.00
56402;BME280;42299;35.160;26.100;2023-12-28T05:05:41;102239.97;;;16.59;100.00
56402;BME280;42299;35.160;26.100;2023-12-28T05:11:07;102251.69;;;16.67;100.00
56402;BME280;42299;35.160;26.100;2023-12-28T05:16:30;102248.94;;;16.62;100.00
56402;BME280;42299;35.160;26.100;2023-12-28T05:21:53;102245.88;;;16.41;100.00
56402;BME280;42299;35.160;26.100;2023-12-28T05:27:17;102248.47;;;16.33;100.00
56402;BME280;42299;35.160;26.100;2023-12-28T05:32:39;102252.81;;;16.27;100.00
56402;BME280;42299;35.160;26.100;2023-12-28T05:38:02;102254.03;;;15.96;100.00
56402;BME280;42299;35.160;26.100;2023-12-28T05:43:33;102262.88;;;15.93;100.00
56402;BME280;42299;35.160;26.100;2023-12-28T05:48:56;102278.81;;;15.92;100.00
56402;BME280;42299;35.160;26.100;2023-12-28T05:54:19;102271.53;;;15.80;100.00
56402;BME280;42299;35.160;26.100;2023-12-28T05:59:45;102284.06;;;15.86;100.00
56402;BME280;42299;35.160;26.100;2023-12-28T06:05:07;102275.44;;;16.01;100.00
56402;BME280;42299;35.160;26.100;2023-12-28T06:10:30;102279.47;;;16.30;100.00
56402;BME280;42299;35.160;26.100;2023-12-28T06:15:54;102287.63;;;16.93;100.00
56402;BME280;42299;35.160;26.100;2023-12-28T06:21:17;102285.31;;;17.21;100.00
56402;BME280;42299;35.160;26.100;2023-12-28T06:26:40;102278.19;;;17.21;100.00
56402;BME280;42299;35.160;26.100;2023-12-28T06:32:06;102277.38;;;17.25;100.00
56402;BME280;42299;35.160;26.100;2023-12-28T06:37:28;102287.75;;;17.72;100.00
56402;BME280;42299;35.160;26.100;2023-12-28T06:42:51;102282.84;;;18.20;100.00
56402;BME280;42299;35.160;26.100;2023-12-28T06:48:15;102285.66;;;18.34;100.00
56402;BME280;42299;35.160;26.100;2023-12-28T06:53:39;102294.72;;;18.50;100.00
56402;BME280;42299;35.160;26.100;2023-12-28T06:59:03;102300.34;;;18.83;100.00
56402;BME280;42299;35.160;26.100;2023-12-28T07:04:27;102306.72;;;19.11;100.00
56402;BME280;42299;35.160;26.100;2023-12-28T07:09:50;102302.28;;;19.13;100.00
56402;BME280;42299;35.160;26.100;2023-12-28T07:15:12;102307.59;;;19.02;100.00
56402;BME280;42299;35.160;26.100;2023-12-28T07:20:37;102317.31;;;18.90;100.00
56402;BME280;42299;35.160;26.100;2023-12-28T07:25:59;102315.78;;;19.34;100.00
56402;BME280;42299;35.160;26.100;2023-12-28T07:31:23;102305.28;;;20.04;100.00
56402;BME280;42299;35.160;26.100;2023-12-28T07:36:48;102316.75;;;19.52;100.00
56402;BME280;42299;35.160;26.100;2023-12-28T07:42:11;102324.47;;;18.89;100.00
56402;BME280;42299;35.160;26.100;2023-12-28T07:47:33;102331.72;;;19.08;100.00
56402;BME280;42299;35.160;26.100;2023-12-28T07:52:57;102316.88;;;21.17;100.00
56402;BME280;42299;35.160;26.100;2023-12-28T07:58:21;102324.13;;;20.45;100.00
56402;BME280;42299;35.160;26.100;2023-12-28T08:03:43;102324.03;;;19.81;100.00
56402;BME280;42299;35.160;26.100;2023-12-28T08:09:07;102326.69;;;19.75;100.00
56402;BME280;42299;35.160;26.100;2023-12-28T08:14:30;102333.00;;;20.05;100.00
56402;BME280;42299;35.160;26.100;2023-12-28T08:19:53;102330.25;;;19.73;100.00
56402;BME280;42299;35.160;26.100;2023-12-28T08:25:17;102332.13;;;20.12;100.00
56402;BME280;42299;35.160;26.100;2023-12-28T08:30:40;102328.28;;;23.71;100.00
56402;BME280;42299;35.160;26.100;2023-12-28T08:36:03;102321.94;;;22.98;100.00
56402;BME280;42299;35.160;26.100;2023-12-28T08:41:28;102312.59;;;22.44;100.00
56402;BME280;42299;35.160;26.100;2023-12-28T08:46:50;102318.41;;;21.73;100.00
56402;BME280;42299;35.160;26.100;2023-12-28T08:52:14;102324.97;;;21.06;100.00
56402;BME280;42299;35.160;26.100;2023-12-28T08:57:39;102316.84;;;21.20;100.00
56402;BME280;42299;35.160;26.100;2023-12-28T09:03:03;102307.66;;;21.77;100.00
56402;BME280;42299;35.160;26.100;2023-12-28T09:08:27;102315.00;;;21.40;100.00
56402;BME280;42299;35.160;26.100;2023-12-28T09:13:53;102306.03;;;21.40;100.00
56402;BME280;42299;35.160;26.100;2023-12-28T09:19:17;102301.00;;;23.94;100.00
56402;BME280;42299;35.160;26.100;2023-12-28T09:24:39;102290.13;;;25.87;100.00
56402;BME280;42299;35.160;26.100;2023-12-28T09:30:10;102280.59;;;24.34;100.00
56402;BME280;42299;35.160;26.100;2023-12-28T09:35:34;102291.75;;;23.45;100.00
56402;BME280;42299;35.160;26.100;2023-12-28T09:41:00;102286.28;;;22.77;100.00
56402;BME280;42299;35.160;26.100;2023-12-28T09:46:27;102278.72;;;24.36;100.00
56402;BME280;42299;35.160;26.100;2023-12-28T09:51:50;102269.53;;;25.40;100.00
56402;BME280;42299;35.160;26.100;2023-12-28T09:57:13;102262.09;;;23.44;100.00
56402;BME280;42299;35.160;26.100;2023-12-28T10:02:38;102255.19;;;22.44;100.00
56402;BME280;42299;35.160;26.100;2023-12-28T10:08:01;102225.38;;;23.98;100.00
56402;BME280;42299;35.160;26.100;2023-12-28T10:13:26;102229.19;;;23.21;100.00
56402;BME280;42299;35.160;26.100;2023-12-28T10:18:51;102214.81;;;23.83;100.00
56402;BME280;42299;35.160;26.100;2023-12-28T10:24:13;102207.28;;;26.83;93.01
56402;BME280;42299;35.160;26.100;2023-12-28T10:29:37;102196.13;;;27.82;77.51
56402;BME280;42299;35.160;26.100;2023-12-28T10:35:02;102212.22;;;25.64;94.69
56402;BME280;42299;35.160;26.100;2023-12-28T10:40:25;102198.94;;;26.26;92.96
56402;BME280;42299;35.160;26.100;2023-12-28T10:45:50;102196.53;;;25.78;93.87
56402;BME280;42299;35.160;26.100;2023-12-28T10:51:15;102194.50;;;25.87;91.28
56402;BME280;42299;35.160;26.100;2023-12-28T10:56:44;102181.16;;;24.07;100.00
56402;BME280;42299;35.160;26.100;2023-12-28T11:02:09;102178.09;;;25.56;94.29
56402;BME280;42299;35.160;26.100;2023-12-28T11:07:35;102159.38;;;25.85;88.84
56402;BME280;42299;35.160;26.100;2023-12-28T11:12:59;102156.88;;;26.78;75.04
56402;BME280;42299;35.160;26.100;2023-12-28T11:18:25;102140.25;;;27.47;69.95
56402;BME280;42299;35.160;26.100;2023-12-28T11:23:51;102146.06;;;26.76;73.73
56402;BME280;42299;35.160;26.100;2023-12-28T11:29:18;102139.66;;;27.10;73.34
56402;BME280;42299;35.160;26.100;2023-12-28T11:34:43;102137.38;;;27.80;65.39
56402;BME280;42299;35.160;26.100;2023-12-28T11:40:16;102114.38;;;26.47;77.44
56402;BME280;42299;35.160;26.100;2023-12-28T11:45:46;102133.75;;;26.65;80.26
56402;BME280;42299;35.160;26.100;2023-12-28T11:51:11;102126.69;;;25.59;85.82
56402;BME280;42299;35.160;26.100;2023-12-28T11:56:35;102125.06;;;24.69;93.46
56402;BME280;42299;35.160;26.100;2023-12-28T12:01:58;102123.53;;;24.55;97.04
56402;BME280;42299;35.160;26.100;2023-12-28T12:07:21;102115.50;;;24.06;99.74
56402;BME280;42299;35.160;26.100;2023-12-28T12:12:45;102113.09;;;23.33;100.00
56402;BME280;42299;35.160;26.100;2023-12-28T12:18:11;102115.59;;;22.87;100.00
56402;BME280;42299;35.160;26.100;2023-12-28T12:23:36;102117.97;;;22.36;100.00
56402;BME280;42299;35.160;26.100;2023-12-28T12:29:03;102119.72;;;22.40;100.00
56402;BME280;42299;35.160;26.100;2023-12-28T12:34:28;102110.19;;;22.10;100.00
56402;BME280;42299;35.160;26.100;2023-12-28T12:39:50;102123.09;;;21.70;100.00
56402;BME280;42299;35.160;26.100;2023-12-28T12:45:15;102114.97;;;21.73;100.00
56402;BME280;42299;35.160;26.100;2023-12-28T12:50:37;102121.34;;;21.62;100.00
56402;BME280;42299;35.160;26.100;2023-12-28T12:56:01;102105.34;;;21.46;100.00
56402;BME280;42299;35.160;26.100;2023-12-28T13:01:26;102109.19;;;21.01;100.00
56402;BME280;42299;35.160;26.100;2023-12-28T13:06:49;102095.84;;;20.91;100.00
56402;BME280;42299;35.160;26.100;2023-12-28T13:12:13;102100.19;;;21.18;100.00
56402;BME280;42299;35.160;26.100;2023-12-28T13:17:38;102099.91;;;21.59;100.00
56402;BME280;42299;35.160;26.100;2023-12-28T13:23:00;102098.78;;;21.84;100.00
56402;BME280;42299;35.160;26.100;2023-12-28T13:28:24;102093.25;;;21.99;100.00
56402;BME280;42299;35.160;26.100;2023-12-28T13:33:49;102093.38;;;21.85;100.00
56402;BME280;42299;35.160;26.100;2023-12-28T13:39:11;102106.16;;;21.59;100.00
56402;BME280;42299;35.160;26.100;2023-12-28T13:44:36;102095.72;;;21.18;100.00
56402;BME280;42299;35.160;26.100;2023-12-28T13:50:01;102114.53;;;21.12;100.00
56402;BME280;42299;35.160;26.100;2023-12-28T13:55:24;102119.66;;;21.48;100.00
56402;BME280;42299;35.160;26.100;2023-12-28T14:00:46;102110.00;;;21.25;100.00
56402;BME280;42299;35.160;26.100;2023-12-28T14:06:11;102115.47;;;21.00;100.00
56402;BME280;42299;35.160;26.100;2023-12-28T14:11:36;102116.59;;;20.60;100.00
56402;BME280;42299;35.160;26.100;2023-12-28T14:16:58;102113.13;;;20.05;100.00
56402;BME280;42299;35.160;26.100;2023-12-28T14:22:24;102110.47;;;19.79;100.00
56402;BME280;42299;35.160;26.100;2023-12-28T14:27:47;102116.75;;;19.67;100.00
56402;BME280;42299;35.160;26.100;2023-12-28T14:33:10;102113.16;;;19.74;100.00
56402;BME280;42299;35.160;26.100;2023-12-28T14:38:34;102117.63;;;19.65;100.00
56402;BME280;42299;35.160;26.100;2023-12-28T14:43:57;102106.00;;;19.52;100.00
56402;BME280;42299;35.160;26.100;2023-12-28T14:49:20;102113.09;;;19.36;100.00
56402;BME280;42299;35.160;26.100;2023-12-28T14:54:44;102107.69;;;18.97;100.00
56402;BME280;42299;35.160;26.100;2023-12-28T15:00:07;102111.09;;;18.58;100.00
56402;BME280;42299;35.160;26.100;2023-12-28T15:05:30;102110.91;;;18.27;100.00
56402;BME280;42299;35.160;26.100;2023-12-28T15:10:55;102115.38;;;18.24;100.00
56402;BME280;42299;35.160;26.100;2023-12-28T15:16:20;102124.22;;;18.17;100.00
56402;BME280;42299;35.160;26.100;2023-12-28T15:21:43;102127.00;;;18.33;100.00
56402;BME280;42299;35.160;26.100;2023-12-28T15:27:09;102126.16;;;18.47;100.00
56402;BME280;42299;35.160;26.100;2023-12-28T15:32:33;102132.19;;;18.12;100.00
56402;BME280;42299;35.160;26.100;2023-12-28T15:37:59;102145.38;;;17.83;100.00
56402;BME280;42299;35.160;26.100;2023-12-28T15:43:23;102142.41;;;17.56;100.00
56402;BME280;42299;35.160;26.100;2023-12-28T15:48:45;102152.78;;;17.24;100.00
56402;BME280;42299;35.160;26.100;2023-12-28T15:54:08;102149.97;;;17.10;100.00
56402;BME280;42299;35.160;26.100;2023-12-28T15:59:32;102149.19;;;17.21;100.00
56402;BME280;42299;35.160;26.100;2023-12-28T16:04:55;102153.50;;;17.09;100.00
56402;BME280;42299;35.160;26.100;2023-12-28T16:10:18;102156.06;;;16.99;100.00
56402;BME280;42299;35.160;26.100;2023-12-28T16:15:47;102157.66;;;16.85;100.00
56402;BME280;42299;35.160;26.100;2023-12-28T16:21:10;102156.66;;;16.75;100.00
56402;BME280;42299;35.160;26.100;2023-12-28T16:26:34;102153.94;;;16.70;100.00
56402;BME280;42299;35.160;26.100;2023-12-28T16:31:59;102169.06;;;16.71;100.00
56402;BME280;42299;35.160;26.100;2023-12-28T16:37:22;102170.69;;;16.62;100.00
56402;BME280;42299;35.160;26.100;2023-12-28T16:42:45;102172.41;;;16.58;100.00
56402;BME280;42299;35.160;26.100;2023-12-28T16:48:09;102170.63;;;16.59;100.00
56402;BME280;42299;35.160;26.100;2023-12-28T16:53:31;102185.63;;;16.51;100.00
56402;BME280;42299;35.160;26.100;2023-12-28T16:58:54;102189.03;;;16.41;100.00
56402;BME280;42299;35.160;26.100;2023-12-28T17:04:18;102192.31;;;16.23;100.00
56402;BME280;42299;35.160;26.100;2023-12-28T17:09:41;102189.44;;;16.09;100.00
56402;BME280;42299;35.160;26.100;2023-12-28T17:15:06;102193.81;;;16.06;100.00
56402;BME280;42299;35.160;26.100;2023-12-28T17:20:31;102192.00;;;16.03;100.00
56402;BME280;42299;35.160;26.100;2023-12-28T17:26:10;102188.19;;;15.87;100.00
56402;BME280;42299;35.160;26.100;2023-12-28T17:32:07;102189.75;;;15.76;100.00
56402;BME280;42299;35.160;26.100;2023-12-28T17:37:34;102199.22;;;15.59;100.00
56402;BME280;42299;35.160;26.100;2023-12-28T17:43:00;102200.16;;;15.61;100.00
56402;BME280;42299;35.160;26.100;2023-12-28T17:48:32;102204.34;;;15.48;100.00
56402;BME280;42299;35.160;26.100;2023-12-28T17:53:58;102209.53;;;15.42;100.00
56402;BME280;42299;35.160;26.100;2023-12-28T17:59:21;102203.44;;;15.48;100.00
56402;BME280;42299;35.160;26.100;2023-12-28T18:04:44;102201.56;;;15.42;100.00
56402;BME280;42299;35.160;26.100;2023-12-28T18:10:10;102208.59;;;15.40;100.00
56402;BME280;42299;35.160;26.100;2023-12-28T18:15:32;102203.22;;;15.37;100.00
56402;BME280;42299;35.160;26.100;2023-12-28T18:20:55;102206.84;;;15.41;100.00
56402;BME280;42299;35.160;26.100;2023-12-28T18:26:20;102194.72;;;15.55;100.00
56402;BME280;42299;35.160;26.100;2023-12-28T18:31:42;102200.81;;;15.51;100.00
56402;BME280;42299;35.160;26.100;2023-12-28T18:37:05;102190.91;;;15.42;100.00
56402;BME280;42299;35.160;26.100;2023-12-28T18:42:29;102202.00;;;15.20;100.00
56402;BME280;42299;35.160;26.100;2023-12-28T18:47:52;102196.88;;;14.87;100.00
56402;BME280;42299;35.160;26.100;2023-12-28T18:53:14;102205.63;;;14.82;100.00
56402;BME280;42299;35.160;26.100;2023-12-28T18:58:39;102208.25;;;14.80;100.00
56402;BME280;42299;35.160;26.100;2023-12-28T19:04:01;102205.47;;;15.18;100.00
56402;BME280;42299;35.160;26.100;2023-12-28T19:09:25;102207.38;;;15.23;100.00
56402;BME280;42299;35.160;26.100;2023-12-28T19:14:54;102205.66;;;15.25;100.00
56402;BME280;42299;35.160;26.100;2023-12-28T19:20:18;102208.16;;;15.18;100.00
56402;BME280;42299;35.160;26.100;2023-12-28T19:25:41;102208.88;;;15.09;100.00
56402;BME280;42299;35.160;26.100;2023-12-28T19:31:05;102212.16;;;14.97;100.00
56402;BME280;42299;35.160;26.100;2023-12-28T19:36:28;102218.47;;;15.01;100.00
56402;BME280;42299;35.160;26.100;2023-12-28T19:41:52;102208.88;;;15.10;100.00
56402;BME280;42299;35.160;26.100;2023-12-28T19:47:16;102206.59;;;14.85;100.00
56402;BME280;42299;35.160;26.100;2023-12-28T19:52:40;102206.66;;;14.48;100.00
56402;BME280;42299;35.160;26.100;2023-12-28T19:58:03;102216.59;;;14.20;100.00
56402;BME280;42299;35.160;26.100;2023-12-28T20:03:27;102215.28;;;14.03;100.00
56402;BME280;42299;35.160;26.100;2023-12-28T20:08:49;102208.31;;;14.08;100.00
56402;BME280;42299;35.160;26.100;2023-12-28T20:14:12;102216.22;;;14.05;100.00
56402;BME280;42299;35.160;26.100;2023-12-28T20:19:36;102226.78;;;14.02;100.00
56402;BME280;42299;35.160;26.100;2023-12-28T20:24:58;102219.34;;;14.25;100.00
56402;BME280;42299;35.160;26.100;2023-12-28T20:30:23;102213.06;;;14.21;100.00
56402;BME280;42299;35.160;26.100;2023-12-28T20:35:47;102217.19;;;13.74;100.00
56402;BME280;42299;35.160;26.100;2023-12-28T20:41:11;102222.13;;;13.61;100.00
56402;BME280;42299;35.160;26.100;2023-12-28T20:46:38;102218.88;;;13.71;100.00
56402;BME280;42299;35.160;26.100;2023-12-28T20:52:05;102226.22;;;13.81;100.00
56402;BME280;42299;35.160;26.100;2023-12-28T20:57:28;102222.06;;;13.57;100.00
56402;BME280;42299;35.160;26.100;2023-12-28T21:02:52;102214.09;;;13.25;100.00
56402;BME280;42299;35.160;26.100;2023-12-28T21:08:16;102212.91;;;12.85;100.00
56402;BME280;42299;35.160;26.100;2023-12-28T21:13:38;102214.28;;;13.02;100.00
56402;BME280;42299;35.160;26.100;2023-12-28T21:19:01;102205.19;;;12.93;100.00
56402;BME280;42299;35.160;26.100;2023-12-28T21:24:26;102198.66;;;12.82;100.00
56402;BME280;42299;35.160;26.100;2023-12-28T21:29:48;102194.69;;;12.67;100.00
56402;BME280;42299;35.160;26.100;2023-12-28T21:35:11;102202.44;;;12.61;100.00
56402;BME280;42299;35.160;26.100;2023-12-28T21:40:35;102195.03;;;12.50;100.00
56402;BME280;42299;35.160;26.100;2023-12-28T21:46:00;102198.34;;;12.43;100.00
56402;BME280;42299;35.160;26.100;2023-12-28T21:51:23;102194.41;;;12.30;100.00
56402;BME280;42299;35.160;26.100;2023-12-28T21:56:48;102180.03;;;12.22;100.00
56402;BME280;42299;35.160;26.100;2023-12-28T22:02:11;102181.88;;;12.24;100.00
56402;BME280;42299;35.160;26.100;2023-12-28T22:07:34;102175.59;;;12.21;100.00
56402;BME280;42299;35.160;26.100;2023-12-28T22:12:58;102177.16;;;12.43;100.00
56402;BME280;42299;35.160;26.100;2023-12-28T22:18:21;102171.00;;;12.44;100.00
56402;BME280;42299;35.160;26.100;2023-12-28T22:23:43;102168.38;;;12.44;100.00
56402;BME280;42299;35.160;26.100;2023-12-28T22:29:07;102167.56;;;12.46;100.00
56402;BME280;42299;35.160;26.100;2023-12-28T22:34:30;102167.41;;;12.70;100.00
56402;BME280;42299;35.160;26.100;2023-12-28T22:39:53;102159.75;;;12.51;100.00
56402;BME280;42299;35.160;26.100;2023-12-28T22:45:16;102160.19;;;12.36;100.00
56402;BME280;42299;35.160;26.100;2023-12-28T22:50:39;102154.88;;;12.96;100.00
56402;BME280;42299;35.160;26.100;2023-12-28T22:56:01;102148.44;;;12.86;100.00
56402;BME280;42299;35.160;26.100;2023-12-28T23:01:26;102146.59;;;12.84;100.00
56402;BME280;42299;35.160;26.100;2023-12-28T23:06:49;102151.22;;;12.91;100.00
56402;BME280;42299;35.160;26.100;2023-12-28T23:12:12;102150.38;;;12.92;100.00
56402;BME280;42299;35.160;26.100;2023-12-28T23:17:37;102135.50;;;12.67;100.00
56402;BME280;42299;35.160;26.100;2023-12-28T23:23:00;102131.00;;;12.94;100.00
56402;BME280;42299;35.160;26.100;2023-12-28T23:28:22;102131.50;;;12.81;100.00
56402;BME280;42299;35.160;26.100;2023-12-28T23:33:47;102129.72;;;12.50;100.00
56402;BME280;42299;35.160;26.100;2023-12-28T23:39:09;102123.88;;;12.62;100.00
56402;BME280;42299;35.160;26.100;2023-12-28T23:44:32;102131.75;;;12.59;100.00
56402;BME280;42299;35.160;26.100;2023-12-28T23:49:56;102129.88;;;12.26;100.00
56402;BME280;42299;35.160;26.100;2023-12-28T23:55:19;102133.72;;;12.08;100.00
